createdAt,value
2022-09-23T19:03:29.328Z,5.75
2022-09-23T19:06:03.306Z,5.85
2022-09-23T19:08:32.131Z,6.50
2022-09-23T19:11:02.767Z,5.85
2022-09-23T19:13:30.621Z,5.95
2022-09-23T19:16:03.531Z,6.40
2022-09-23T19:18:33.344Z,6.63
2022-09-23T19:21:06.856Z,6.20
2022-09-23T19:23:36.208Z,6.85
2022-09-23T19:26:05.729Z,8.63
2022-09-23T19:28:38.901Z,10.98
2022-09-23T19:31:10.899Z,9.43
2022-09-23T19:33:41.181Z,7.90
2022-09-23T19:36:09.428Z,6.90
2022-09-23T19:38:38.344Z,6.35
2022-09-23T19:41:07.929Z,6.85
2022-09-23T19:43:37.456Z,6.22
2022-09-23T19:46:06.718Z,7.10
2022-09-23T19:48:34.656Z,6.90
2022-09-23T19:51:03.885Z,8.13
2022-09-23T19:53:31.566Z,8.82
2022-09-23T19:56:00.476Z,8.73
2022-09-23T19:58:28.198Z,8.13
2022-09-23T20:00:55.925Z,7.35
2022-09-23T20:03:24.731Z,7.80
2022-09-23T20:05:56.593Z,7.45
2022-09-23T20:08:26.933Z,6.80
2022-09-23T20:10:54.650Z,6.28
2022-09-23T20:13:22.679Z,6.70
2022-09-23T20:15:50.506Z,6.40
2022-09-23T20:18:18.260Z,6.43
2022-09-23T20:20:45.944Z,6.18
2022-09-23T20:23:13.643Z,7.80
2022-09-23T20:25:59.973Z,6.40
2022-09-23T20:28:27.693Z,6.22
2022-09-23T20:30:59.165Z,6.97
2022-09-23T20:33:30.179Z,6.38
2022-09-23T20:36:00.875Z,7.00
2022-09-23T20:38:28.633Z,6.82
2022-09-23T20:40:58.189Z,6.85
2022-09-23T20:43:26.419Z,6.43
2022-09-23T20:45:56.028Z,6.63
2022-09-23T20:48:25.552Z,5.93
2022-09-23T20:50:53.220Z,5.82
2022-09-23T20:53:22.182Z,6.40
2022-09-23T20:55:51.169Z,6.57
2022-09-23T20:58:20.786Z,5.90
2022-09-23T21:00:48.508Z,6.30
2022-09-23T21:03:16.321Z,6.55
2022-09-23T21:05:43.999Z,6.43
2022-09-23T21:08:12.544Z,6.28
2022-09-23T21:10:41.607Z,6.13
2022-09-23T21:13:09.268Z,5.82
2022-09-23T21:15:38.299Z,6.45
2022-09-23T21:18:06.155Z,6.22
2022-09-23T21:20:33.843Z,6.35
2022-09-23T21:23:01.641Z,6.47
2022-09-23T21:25:30.335Z,5.97
2022-09-23T21:27:58.896Z,6.22
2022-09-23T21:30:26.670Z,6.15
2022-09-23T21:32:55.954Z,6.25
2022-09-23T21:35:23.599Z,6.20
2022-09-23T21:37:52.734Z,5.90
2022-09-23T21:40:38.365Z,6.40
2022-09-23T21:43:06.064Z,5.90
2022-09-23T21:45:34.082Z,6.10
2022-09-23T21:48:03.584Z,6.30
2022-09-23T21:50:32.358Z,7.15
2022-09-23T21:53:00.878Z,6.53
2022-09-23T21:55:28.604Z,6.57
2022-09-23T21:57:56.537Z,6.65
2022-09-23T22:00:24.642Z,6.85
2022-09-23T22:02:53.372Z,6.65
2022-09-23T22:05:23.164Z,6.57
2022-09-23T22:07:50.864Z,6.50
2022-09-23T22:10:18.584Z,7.47
2022-09-23T22:12:48.956Z,6.63
2022-09-23T22:15:19.703Z,7.07
2022-09-23T22:17:48.004Z,7.32
2022-09-23T22:20:16.973Z,6.93
2022-09-23T22:22:45.970Z,7.53
2022-09-23T22:25:13.620Z,7.38
2022-09-23T22:28:01.814Z,7.65
2022-09-23T22:30:49.041Z,7.00
2022-09-23T22:33:17.220Z,6.63
2022-09-23T22:35:44.872Z,7.43
2022-09-23T22:38:13.913Z,6.63
2022-09-23T22:40:43.755Z,7.20
2022-09-23T22:43:12.862Z,7.18
2022-09-23T22:45:40.664Z,6.95
2022-09-23T22:48:08.334Z,6.47
2022-09-23T22:50:38.950Z,6.25
2022-09-23T22:53:09.069Z,6.82
2022-09-23T22:55:38.066Z,6.82
2022-09-23T22:58:27.723Z,6.53
2022-09-23T23:05:50.363Z,7.15
2022-09-23T23:08:18.158Z,6.93
2022-09-23T23:10:45.793Z,6.82
2022-09-23T23:13:13.447Z,7.25
2022-09-23T23:15:41.255Z,6.72
2022-09-23T23:18:08.970Z,7.32
2022-09-23T23:20:37.875Z,7.05
2022-09-23T23:23:06.965Z,7.15
2022-09-23T23:25:34.686Z,7.10
2022-09-23T23:28:06.729Z,6.90
2022-09-23T23:30:35.400Z,6.93
2022-09-23T23:33:03.123Z,6.95
2022-09-23T23:35:30.979Z,6.85
2022-09-23T23:37:59.112Z,7.32
2022-09-23T23:40:28.187Z,6.35
2022-09-23T23:42:55.945Z,7.00
2022-09-23T23:45:23.609Z,7.78
2022-09-23T23:48:48.216Z,6.97
2022-09-23T23:51:18.872Z,6.40
2022-09-23T23:53:46.894Z,6.43
2022-09-23T23:56:17.860Z,7.72
2022-09-23T23:58:45.771Z,6.45
